Luray, Kansas
Current Conditions -  °F | °C
As of 6:53 PM on Friday 24 Oct 2014 (Local Time) from KRSL Reporting Station
Clear Clear  
Wind Chill: 74°   Ceiling: Unl
Heat Index: 74°   Visibility: 10mi
Dew Point: 55°   Wind: 6mph
Humidity: 52%   Direction: 190°S
Pressure: 29.97"   Gusts: NA
Location:  39.11°N, 98.69°W
Report Text: KRSL 242353Z AUTO 19005KT 10SM CLR 23/13 A2997 RMK AO2 SLP137 T02330128 10300 20233 53003
Loading
Personal Weather Stations






























Interactive Weather Map
Tropical Storm Tracking
New forecast layout! Learn more

10-Day Weather Forecast

Advertisements
Track Severe Weather on mobile